Time;durP1;ratioP1;P1;durP2;ratioP2;P2;SDS_P1;SDS_P2;PMS_P1;PMS_P2;Temp;Humidity;BMP_temperature;BMP_pressure;BME280_temperature;BME280_humidity;BME280_pressure;Samples;Min_cycle;Max_cycle;Signal;HPM_P1;HPM_P2
2022/07/24 00:11:27;;;;;;;;;;;;;;;19.63;49.58105;101933;;;;-81
2022/07/24 01:13:40;;;;;;;;;;;;;;;19.14;50.1416;101923.3;;;;-81
2022/07/24 01:18:21;;;;;;;;;;;;;;;19.07;49.91797;101921.8;;;;-83
2022/07/24 03:22:55;;;;;;;;;;;;;;;;;;;;;
2022/07/24 03:28:20;;;;;;;;;;;;;;;18.36;52.79199;101819;;;;-80
2022/07/24 04:10:56;;;;;;;;;;;;;;;;;;;;;
2022/07/24 05:18:34;;;;;;;;;;;;;;;18.64;53.84863;101818.6;;;;-81
2022/07/24 05:42:03;;;;;;;5.9;2.9;;;;;;;;;;;;;-80
2022/07/24 09:48:00;;;;;;;;;;;;;;;31.23;36.47168;101781.6;;;;-83
2022/07/24 09:57:59;;;;;;;;;;;;;;;31.7;36.49707;101784.1;;;;-82
2022/07/24 10:02:33;;;;;;;;;;;;;;;32.23;35.62109;101778.2;;;;-82
2022/07/24 10:05:52;;;;;;;;;;;;;;;32.15;35.09668;101779.8;;;;-83
2022/07/24 10:19:40;;;;;;;;;;;;;;;32.79;34.34375;101776.9;;;;-82
2022/07/24 10:23:37;;;;;;;;;;;;;;;32.45;34.625;101771.6;;;;-83
2022/07/24 10:33:50;;;;;;;;;;;;;;;32.68;34.26563;101766.1;;;;-85
2022/07/24 10:42:26;;;;;;;3.8;1.4;;;;;;;;;;;;;-84
2022/07/24 10:43:31;;;;;;;;;;;;;;;33.2;34.09277;101767;;;;-85
2022/07/24 10:49:06;;;;;;;;;;;;;;;33.43;33.68359;101765.7;;;;-82
2022/07/24 10:58:38;;;;;;;;;;;;;;;;;;;;;
2022/07/24 12:04:28;;;;;;;;;;;;;;;35.23;31.26563;101702.1;;;;-86
2022/07/24 12:09:06;;;;;;;;;;;;;;;35;31.6416;101711.9;;;;-86
2022/07/24 12:12:55;;;;;;;3.2;1.4;;;;;;;;;;;;;-87
2022/07/24 12:13:59;;;;;;;;;;;;;;;35.06;31.62207;101707;;;;-86
2022/07/24 12:18:58;;;;;;;;;;;;;;;35.17;31.81934;101697.5;;;;-86
2022/07/24 12:24:01;;;;;;;;;;;;;;;35.3;31.76855;101689.9;;;;-85
2022/07/24 12:29:13;;;;;;;;;;;;;;;35.4;31.81152;101689.2;;;;-85
2022/07/24 12:34:03;;;;;;;;;;;;;;;35.6;32.06348;101684.8;;;;-86
2022/07/24 12:39:04;;;;;;;;;;;;;;;35.74;30.99219;101677.9;;;;-85
2022/07/24 12:42:40;;;;;;;3.9;1.5;;;;;;;;;;;;;-86
2022/07/24 12:44:06;;;;;;;;;;;;;;;35.77;30.44727;101671.1;;;;-84
2022/07/24 12:49:06;;;;;;;;;;;;;;;35.91;30.69434;101674.4;;;;-85
2022/07/24 12:54:00;;;;;;;;;;;;;;;35.86;30.18066;101664.6;;;;-84
2022/07/24 12:59:01;;;;;;;;;;;;;;;35.95;30.4834;101657.7;;;;-85
2022/07/24 13:03:56;;;;;;;;;;;;;;;36.12;30.73242;101646.6;;;;-85
2022/07/24 13:08:49;;;;;;;;;;;;;;;36.26;30.34961;101642;;;;-86
2022/07/24 13:12:50;;;;;;;2.7;1.6;;;;;;;;;;;;;-85
2022/07/24 13:13:48;;;;;;;;;;;;;;;36.49;30.75684;101645.6;;;;-84
2022/07/24 13:18:51;;;;;;;;;;;;;;;36.65;30.18359;101638.3;;;;-86
2022/07/24 13:23:48;;;;;;;;;;;;;;;36.78;29.97852;101628.7;;;;-85
2022/07/24 13:28:59;;;;;;;;;;;;;;;36.74;29.66602;101629.8;;;;-86
2022/07/24 13:33:49;;;;;;;;;;;;;;;36.68;29.75781;101621.2;;;;-86
2022/07/24 13:38:55;;;;;;;;;;;;;;;36.86;29.91211;101610.9;;;;-86
2022/07/24 13:42:52;;;;;;;3.3;1.8;;;;;;;;;;;;;-86
2022/07/24 13:43:50;;;;;;;;;;;;;;;36.92;29.84473;101605;;;;-85
2022/07/24 13:48:55;;;;;;;;;;;;;;;37.1;30.17773;101595.1;;;;-84
2022/07/24 13:53:51;;;;;;;;;;;;;;;37.26;30.08105;101587.4;;;;-85
2022/07/24 13:58:53;;;;;;;;;;;;;;;37.29;29.06934;101585.5;;;;-86
2022/07/24 14:03:52;;;;;;;;;;;;;;;37.29;29.59375;101577.1;;;;-87
2022/07/24 14:08:54;;;;;;;;;;;;;;;37.26;29.05566;101575.1;;;;-86
2022/07/24 14:13:06;;;;;;;5.2;1.7;;;;;;;;;;;;;-83
2022/07/24 14:13:52;;;;;;;;;;;;;;;37.06;28.94824;101567.7;;;;-85
2022/07/24 14:18:56;;;;;;;;;;;;;;;37.12;29.4043;101561.8;;;;-85
2022/07/24 14:23:56;;;;;;;;;;;;;;;37.16;29.4541;101554.9;;;;-85
2022/07/24 14:28:58;;;;;;;;;;;;;;;37.25;29.20996;101547.2;;;;-86
2022/07/24 14:33:58;;;;;;;;;;;;;;;37.32;29.17773;101543.8;;;;-85
2022/07/24 14:38:51;;;;;;;;;;;;;;;37.24;29.03027;101529.6;;;;-86
2022/07/24 14:43:01;;;;;;;2.2;1.4;;;;;;;;;;;;;-86
2022/07/24 14:49:03;;;;;;;;;;;;;;;37.15;28.71484;101516.8;;;;-85
2022/07/24 14:54:05;;;;;;;;;;;;;;;37.06;28.8291;101504.3;;;;-86
2022/07/24 14:58:51;;;;;;;;;;;;;;;37.22;29.04102;101503;;;;-84
2022/07/24 15:04:23;;;;;;;;;;;;;;;37.24;28.57715;101491.8;;;;-90
2022/07/24 16:06:14;;;;;;;;;;;;;;;;;;;;;
2022/07/24 16:16:10;;;;;;;;;;;;;;;;;;;;;
2022/07/24 16:41:25;;;;;;;;;;;;;;;35.5;29.44336;101373.3;;;;-81
2022/07/24 16:43:32;;;;;;;3.4;1.8;;;;;;;;;;;;;-81
2022/07/24 16:46:49;;;;;;;;;;;;;;;;;;;;;
2022/07/24 16:47:49;;;;;;;;;;;;;;;35.66;29.41797;101368.1;;;;-79
2022/07/24 16:51:30;;;;;;;;;;;;;;;35.34;29.78906;101358.1;;;;-81
2022/07/24 16:56:32;;;;;;;;;;;;;;;35.25;29.72363;101351.7;;;;-81
2022/07/24 17:01:49;;;;;;;;;;;;;;;35.1;29.62012;101339.8;;;;-78
2022/07/24 17:06:42;;;;;;;;;;;;;;;34.96;29.94238;101341.6;;;;-81
2022/07/24 17:11:44;;;;;;;;;;;;;;;34.89;29.93848;101342.6;;;;-82
2022/07/24 17:13:37;;;;;;;2.8;1.7;;;;;;;;;;;;;-80
2022/07/24 17:16:42;;;;;;;;;;;;;;;34.76;29.84668;101338.6;;;;-80
2022/07/24 17:26:51;;;;;;;;;;;;;;;34.45;30.19336;101335;;;;-81
2022/07/24 17:37:44;;;;;;;;;;;;;;;34.39;30.47461;101327.9;;;;-81
2022/07/24 17:40:26;;;;;;;;;;;;;;;34.03;30.85254;101324.2;;;;-82
2022/07/24 17:44:02;;;;;;;2.4;1.6;;;;;;;;;;;;;-80
2022/07/24 17:50:23;;;;;;;;;;;;;;;33.83;31.44238;101337.4;;;;-81
2022/07/24 18:28:32;;;;;;;;;;;;;;;32.26;33.12598;101331.8;;;;-86
2022/07/24 18:32:01;;;;;;;;;;;;;;;31.62;33.57422;101329.3;;;;-86
2022/07/24 18:37:25;;;;;;;;;;;;;;;31.33;33.6582;101323.2;;;;-87
2022/07/24 18:42:26;;;;;;;;;;;;;;;;;;;;;
2022/07/24 18:47:34;;;;;;;;;;;;;;;;;;;;;
2022/07/24 18:52:05;;;;;;;;;;;;;;;30.57;33.64941;101317.6;;;;-87
2022/07/24 18:57:04;;;;;;;;;;;;;;;30.31;33.83008;101313.5;;;;-85
2022/07/24 19:02:14;;;;;;;;;;;;;;;30.05;34.05664;101311.8;;;;-85
2022/07/24 19:07:11;;;;;;;;;;;;;;;29.79;34.30664;101313.3;;;;-86
2022/07/24 19:11:58;;;;;;;;;;;;;;;29.54;34.43945;101311.5;;;;-86
2022/07/24 19:14:07;;;;;;;5.1;2.5;;;;;;;;;;;;;-86
2022/07/24 19:16:59;;;;;;;;;;;;;;;29.31;34.63184;101303.7;;;;-86
2022/07/24 19:22:00;;;;;;;;;;;;;;;29.08;34.73242;101296.9;;;;-86
2022/07/24 19:27:02;;;;;;;;;;;;;;;28.87;34.84473;101298;;;;-87
2022/07/24 19:31:57;;;;;;;;;;;;;;;28.66;35.05078;101294.2;;;;-85
2022/07/24 19:37:07;;;;;;;;;;;;;;;28.45;35.19824;101291.6;;;;-84
2022/07/24 19:42:13;;;;;;;;;;;;;;;28.25;35.46191;101292.1;;;;-85
2022/07/24 19:44:03;;;;;;;4.1;2.6;;;;;;;;;;;;;-85
2022/07/24 19:46:53;;;;;;;;;;;;;;;27.92;38.04785;101290.8;;;;-81
2022/07/24 19:51:53;;;;;;;;;;;;;;;27.39;39.02734;101289.9;;;;-83
2022/07/24 19:57:01;;;;;;;;;;;;;;;27.4;37.7832;101284.4;;;;-86
2022/07/24 20:02:00;;;;;;;;;;;;;;;27.35;37.92969;101284.9;;;;-82
2022/07/24 20:06:57;;;;;;;;;;;;;;;27.23;37.89746;101280.6;;;;-83
2022/07/24 20:12:12;;;;;;;;;;;;;;;27.11;37.94434;101276.8;;;;-84
2022/07/24 20:14:08;;;;;;;4.2;2.5;;;;;;;;;;;;;-84
2022/07/24 20:16:57;;;;;;;;;;;;;;;26.97;38.0498;101270.4;;;;-85
2022/07/24 20:21:59;;;;;;;;;;;;;;;26.83;38.0957;101264.2;;;;-87
2022/07/24 20:26:59;;;;;;;;;;;;;;;26.7;38.21191;101262.8;;;;-85
2022/07/24 20:36:58;;;;;;;;;;;;;;;26.44;38.3877;101252.2;;;;-84
2022/07/24 20:42:03;;;;;;;;;;;;;;;26.56;38.41016;101244;;;;-73
2022/07/24 20:44:04;;;;;;;5.4;2.6;;;;;;;;;;;;;-73
2022/07/24 20:45:14;;;;;;;;;;;;;;;26.23;38.68262;101238.4;;;;-73
2022/07/24 20:50:14;;;;;;;;;;;;;;;26.12;38.74414;101231.5;;;;-72
2022/07/24 20:55:15;;;;;;;;;;;;;;;26.02;38.80469;101225.6;;;;-74
2022/07/24 21:00:15;;;;;;;;;;;;;;;25.92;38.92285;101214.8;;;;-74
2022/07/24 21:05:14;;;;;;;;;;;;;;;25.82;39.01953;101211.2;;;;-74
2022/07/24 21:10:15;;;;;;;;;;;;;;;25.74;39.15137;101214.2;;;;-74
2022/07/24 21:14:08;;;;;;;3.6;2.5;;;;;;;;;;;;;-73
2022/07/24 21:15:16;;;;;;;;;;;;;;;25.65;39.23633;101207.9;;;;-73
2022/07/24 21:20:15;;;;;;;;;;;;;;;25.57;39.27539;101210.9;;;;-73
2022/07/24 21:25:14;;;;;;;;;;;;;;;25.5;39.26953;101213.4;;;;-73
